Flight Track Log - Related Links

Times and Time Zones

All times are in EDT time to prevent confusion due to time zone crossing. See the N531RQ flight status page for this flight to view local times or setup timezone preferences in your user account.

Time Position Orientation Groundspeed Altitude Reporting Facility
EDT Latitude Longitude Course Direction KTS MPH feet Rate Location/Type
Wed 02:58:17 PM 36.0753 -115.1844 271° West 202 232 3,200  Level Los Angeles Center
Wed 02:59:18 PM 36.0764 -115.2586 271° West 214 246 5,600 2,400 Climbing Los Angeles Center
Wed 03:00:12 PM 36.1147 -115.2964 321° Northwest 234 269 7,800 2,508 Climbing Los Angeles Center
Wed 03:01:20 PM 36.1756 -115.2581 27° Northeast 240 276 10,700 2,000 Climbing Los Angeles Center
Wed 03:02:15 PM 36.1917 -115.2022 70° East 243 280 11,900 1,367 Climbing Los Angeles Center
Wed 03:04:20 PM 36.1986 -114.9733 88° East 315 362 14,800 1,508 Climbing Los Angeles Center
Wed 03:05:22 PM 36.1997 -114.8353 89° East 331 381 16,600 1,548 Climbing Los Angeles Center
Wed 03:06:24 PM 36.2006 -114.7194 89° East 336 387 18,000 1,403 Climbing Los Angeles Center
Wed 03:07:26 PM 36.1983 -114.5997 91° East 344 396 19,500 1,452 Climbing Los Angeles Center
Wed 03:08:28 PM 36.1956 -114.4819 92° East 344 396 21,000 1,210 Climbing Los Angeles Center
Wed 03:09:30 PM 36.1944 -114.3586 91° East 355 409 22,000 677 Climbing Los Angeles Center
Wed 03:10:32 PM 36.1933 -114.2278 91° East 376 433 22,400 768 Climbing Los Angeles Center
Wed 03:11:35 PM 36.1714 -114.0808 100° East 372 428 23,600 1,296 Climbing Los Angeles Center
Wed 03:12:37 PM 36.1831 -113.9578 83° East 367 422 25,100 1,645 Climbing Los Angeles Center
Wed 03:13:39 PM 36.2253 -113.8417 66° East 370 426 27,000 2,032 Climbing Los Angeles Center
Wed 03:14:41 PM 36.2628 -113.7336 67° East 347 399 29,300 1,839 Climbing Los Angeles Center
Wed 03:15:43 PM 36.2986 -113.6297 67° East 330 380 30,800 1,403 Climbing Los Angeles Center
Wed 03:16:45 PM 36.3361 -113.5236 66° East 335 386 32,200 1,355 Climbing Los Angeles Center
Wed 03:17:47 PM 36.3814 -113.3919 67° East 344 396 33,600 1,161 Climbing Los Angeles Center
Wed 03:18:49 PM 36.4203 -113.2792 67° East 353 406 34,600 677 Climbing Los Angeles Center
Wed 03:19:51 PM 36.4592 -113.1639 67° East 369 425 35,000 194 Climbing Los Angeles Center
Wed 03:20:53 PM 36.5036 -113.0364 67° East 395 455 35,000  Level Los Angeles Center
Wed 03:21:56 PM 36.5600 -112.8731 67° East 425 489 35,000 263 Level Los Angeles Center
Wed 03:23:10 PM 36.6056 -112.7322 68° East 437 503 35,600 794 Climbing Los Angeles Center
Wed 03:24:12 PM 36.6606 -112.5675 67° East 433 498 36,800 1,016 Climbing Los Angeles Center
Wed 03:25:14 PM 36.7061 -112.4358 67° East 423 487 37,700 919 Climbing Los Angeles Center
Wed 03:26:16 PM 36.7492 -112.3053 68° East 415 478 38,700 1,065 Climbing Los Angeles Center
Wed 03:27:18 PM 36.8008 -112.1506 67° East 408 470 39,900 1,016 Climbing Los Angeles Center
Wed 03:28:20 PM 36.8606 -112.0383 56° Northeast 399 459 40,800 532 Climbing Los Angeles Center
Wed 03:29:22 PM 36.9217 -111.9636 44° Northeast 389 448 41,000 96 Climbing Los Angeles Center
Wed 03:30:25 PM 37.0167 -111.8419 46° Northeast 401 461 41,000  Level Los Angeles Center
Wed 03:31:27 PM 37.0994 -111.7356 46° Northeast 421 484 41,000  Level Los Angeles Center
Wed 03:32:29 PM 37.1844 -111.6272 45° Northeast 434 499 41,000  Level Los Angeles Center
Wed 03:33:31 PM 37.2850 -111.4967 46° Northeast 436 502 41,000  Level Los Angeles Center
Wed 03:34:33 PM 37.3694 -111.3861 46° Northeast 438 504 41,000  Level Los Angeles Center
Wed 03:35:35 PM 37.4536 -111.2761 46° Northeast 438 504 41,000  Level Los Angeles Center
Wed 03:36:40 PM 37.5375 -111.1653 46° Northeast 442 509 41,000  Level Denver Center
Wed 03:38:07 PM 37.6719 -110.9892 46° Northeast 438 504 41,000  Level Denver Center
Wed 03:39:09 PM 37.7558 -110.8772 47° Northeast 440 506 41,000  Level Denver Center
Wed 03:40:10 PM 37.8236 -110.7883 46° Northeast 440 506 41,000  Level Denver Center
Wed 03:41:13 PM 37.9239 -110.6539 47° Northeast 438 504 41,000  Level Denver Center
Wed 03:42:15 PM 38.0194 -110.5261 46° Northeast 436 502 41,000  Level Denver Center
Wed 03:43:16 PM 38.0994 -110.4175 47° Northeast 439 505 41,000  Level Denver Center
Wed 03:44:14 PM 38.1794 -110.3103 46° Northeast 438 504 41,000  Level Salt Lake Center
Wed 03:45:16 PM 38.2728 -110.1847 47° Northeast 438 504 41,000  Level Salt Lake Center
Wed 03:46:18 PM 38.3525 -110.0772 47° Northeast 437 503 41,000  Level Salt Lake Center
Wed 03:47:20 PM 38.4439 -109.9536 47° Northeast 431 496 41,000  Level Salt Lake Center
Wed 03:48:22 PM 38.5219 -109.8472 47° Northeast 428 493 41,000  Level Salt Lake Center
Wed 03:49:24 PM 38.5997 -109.7414 47° Northeast 428 493 41,000  Level Salt Lake Center
Wed 03:50:42 PM 38.7150 -109.5800 48° Northeast 428 493 41,000  Level Denver Center
Wed 03:51:56 PM 38.8031 -109.4539 48° Northeast 423 487 41,000  Level Denver Center
Wed 03:52:58 PM 38.8928 -109.3275 48° Northeast 428 493 41,000  Level Denver Center
Wed 03:54:00 PM 38.9708 -109.2214 47° Northeast 427 491 41,000  Level Denver Center
Wed 03:55:02 PM 39.0611 -109.0953 47° Northeast 431 496 41,000  Level Denver Center
Wed 03:56:04 PM 39.1383 -108.9864 48° Northeast 431 496 41,000  Level Denver Center
Wed 03:57:06 PM 39.2283 -108.8594 48° Northeast 431 496 41,000  Level Denver Center
Wed 03:58:08 PM 39.3047 -108.7486 48° Northeast 433 498 41,000  Level Denver Center
Wed 03:59:10 PM 39.3969 -108.6214 47° Northeast 439 505 41,000  Level Denver Center
Wed 04:00:24 PM 39.4731 -108.5103 48° Northeast 437 503 41,000  Level Denver Center
Wed 04:01:26 PM 39.5778 -108.3628 47° Northeast 453 521 41,000  Level Denver Center
Wed 04:02:28 PM 39.6678 -108.2347 48° Northeast 436 502 41,000  Level Denver Center
Wed 04:03:30 PM 39.7458 -108.1231 48° Northeast 436 502 41,000  Level Denver Center
Wed 04:04:31 PM 39.8200 -108.0119 49° Northeast 430 495 41,000  Level Denver Center
Wed 04:05:33 PM 39.9092 -107.8811 48° Northeast 432 497 41,000  Level Denver Center
Wed 04:06:35 PM 39.9867 -107.7692 48° Northeast 436 502 41,000  Level Denver Center
Wed 04:07:37 PM 40.0756 -107.6372 49° Northeast 435 501 41,000  Level Denver Center
Wed 04:08:39 PM 40.1522 -107.5242 48° Northeast 434 499 41,000  Level Denver Center
Wed 04:09:41 PM 40.2414 -107.3919 49° Northeast 434 499 41,000  Level Denver Center
Wed 04:10:43 PM 40.3175 -107.2792 48° Northeast 432 497 41,000  Level Denver Center
Wed 04:11:44 PM 40.4064 -107.1447 49° Northeast 436 502 41,000  Level Denver Center
Wed 04:12:46 PM 40.4708 -107.0494 48° Northeast 437 503 41,000  Level Denver Center
Wed 04:13:48 PM 40.5589 -106.9178 49° Northeast 441 507 41,000  Level Denver Center
Wed 04:15:02 PM 40.6583 -106.7747 47° Northeast 432 497 41,000  Level Denver Center
Wed 04:16:04 PM 40.7553 -106.6525 44° Northeast 433 498 41,000  Level Denver Center
Wed 04:17:06 PM 40.8517 -106.5272 44° Northeast 436 502 41,000  Level Denver Center
Wed 04:18:08 PM 40.9319 -106.4197 45° Northeast 434 499 41,000  Level Denver Center
Wed 04:19:10 PM 41.0264 -106.2928 45° Northeast 435 501 41,000  Level Denver Center
Wed 04:20:24 PM 41.1106 -106.1836 44° Northeast 439 505 41,000  Level Denver Center
Wed 04:21:26 PM 41.2222 -106.0314 46° Northeast 437 503 41,000  Level Denver Center
Wed 04:22:28 PM 41.3044 -105.9239 44° Northeast 433 498 41,000  Level Denver Center
Wed 04:23:30 PM 41.4000 -105.7975 45° Northeast 434 499 41,000  Level Denver Center
Wed 04:24:32 PM 41.4828 -105.6878 45° Northeast 435 501 41,000  Level Denver Center
Wed 04:25:34 PM 41.5653 -105.5783 45° Northeast 436 502 41,000  Level Denver Center
Wed 04:26:36 PM 41.6642 -105.4533 43° Northeast 438 504 41,000  Level Denver Center
Wed 04:27:37 PM 41.7472 -105.3442 44° Northeast 437 503 41,000  Level Denver Center
Wed 04:28:39 PM 41.8453 -105.2206 43° Northeast 435 501 41,000  Level Denver Center
Wed 04:29:41 PM 41.9297 -105.1136 43° Northeast 437 503 41,000  Level Denver Center
Wed 04:30:43 PM 42.0172 -104.9781 49° Northeast 434 499 41,000  Level Denver Center
Wed 04:31:45 PM 42.0550 -104.8222 72° East 455 524 41,000  Level Denver Center
Wed 04:32:47 PM 42.0972 -104.6392 73° East 460 529 41,000  Level Denver Center
Wed 04:33:49 PM 42.1331 -104.4800 73° East 467 537 41,000  Level Denver Center
Wed 04:34:51 PM 42.1731 -104.2933 74° East 467 537 41,000  Level Denver Center
Wed 04:35:52 PM 42.2089 -104.1342 73° East 468 539 41,000  Level Denver Center
Wed 04:36:54 PM 42.2503 -103.9475 73° East 467 537 41,000  Level Denver Center
Wed 04:37:56 PM 42.2850 -103.7878 74° East 466 536 41,000  Level Denver Center
Wed 04:38:58 PM 42.3258 -103.6008 73° East 466 536 41,000  Level Denver Center
Wed 04:40:00 PM 42.3606 -103.4397 74° East 467 537 41,000  Level Denver Center
Wed 04:41:02 PM 42.3997 -103.2539 74° East 464 534 41,000  Level Denver Center
Wed 04:42:04 PM 42.4339 -103.0919 74° East 467 537 41,000  Level Denver Center
Wed 04:43:06 PM 42.4669 -102.9317 74° East 465 535 41,000  Level Denver Center
Wed 04:44:08 PM 42.5050 -102.7453 74° East 462 532 41,000  Level Denver Center
Wed 04:45:10 PM 42.5389 -102.5831 74° East 465 535 41,000  Level Denver Center
Wed 04:46:12 PM 42.5758 -102.3953 75° East 463 533 41,000  Level Denver Center
Wed 04:47:14 PM 42.6078 -102.2333 75° East 464 534 41,000  Level Denver Center
Wed 04:48:16 PM 42.6467 -102.0442 74° East 467 537 41,000  Level Denver Center
Wed 04:49:18 PM 42.6764 -101.8808 76° East 467 537 41,000  Level Denver Center
Wed 04:50:20 PM 42.7158 -101.6961 74° East 462 532 41,000  Level Denver Center
Wed 04:51:22 PM 42.7469 -101.5317 76° East 464 534 41,000  Level Denver Center
Wed 04:52:24 PM 42.7811 -101.3517 75° East 465 535 41,000  Level Denver Center
Wed 04:53:26 PM 42.8125 -101.1783 76° East 467 537 41,000  Level Denver Center
Wed 04:54:28 PM 42.8444 -101.0086 76° East 465 535 41,000  Level Denver Center
Wed 04:55:30 PM 42.8772 -100.8383 75° East 465 535 41,000  Level Denver Center
Wed 04:56:32 PM 42.9150 -100.6361 76° East 461 531 41,000  Level Denver Center
Wed 04:57:34 PM 42.9467 -100.4667 76° East 462 532 41,000  Level Denver Center
Wed 04:58:31 PM 42.9781 -100.2992 76° East 461 531 41,000  Level Minneapolis Center
Wed 05:00:41 PM 43.0394 -99.9547 76° East 466 536 41,000  Level Denver Center
Wed 05:01:38 PM 43.0694 -99.7858 76° East 465 535 41,000  Level Minneapolis Center
Wed 05:02:40 PM 43.1008 -99.6031 77° East 468 539 41,000  Level Minneapolis Center
Wed 05:03:42 PM 43.1294 -99.4386 77° East 470 541 41,000  Level Minneapolis Center
Wed 05:04:44 PM 43.1650 -99.2300 77° East 470 541 41,000  Level Minneapolis Center
Wed 05:05:46 PM 43.1953 -99.0553 77° East 473 544 41,000  Level Minneapolis Center
Wed 05:06:48 PM 43.2244 -98.8778 77° East 475 547 41,000  Level Minneapolis Center
Wed 05:07:50 PM 43.2547 -98.7031 77° East 474 545 41,000  Level Minneapolis Center
Wed 05:08:53 PM 43.2825 -98.5272 78° East 473 544 41,000  Level Minneapolis Center
Wed 05:09:55 PM 43.3122 -98.3511 77° East 476 548 41,000  Level Minneapolis Center
Wed 05:10:57 PM 43.3456 -98.1394 78° East 475 547 41,000  Level Minneapolis Center
Wed 05:11:59 PM 43.3733 -97.9639 78° East 473 544 41,000  Level Minneapolis Center
Wed 05:13:01 PM 43.4028 -97.7889 77° East 472 543 41,000  Level Minneapolis Center
Wed 05:14:03 PM 43.4292 -97.6111 78° East 475 547 41,000  Level Minneapolis Center
Wed 05:15:05 PM 43.4564 -97.4331 78° East 476 548 41,000  Level Minneapolis Center
Wed 05:16:07 PM 43.4886 -97.2208 78° East 474 545 41,000  Level Minneapolis Center
Wed 05:17:09 PM 43.5156 -97.0431 78° East 476 548 41,000  Level Minneapolis Center
Wed 05:18:11 PM 43.5419 -96.8661 78° East 475 547 41,000  Level Minneapolis Center
Wed 05:19:13 PM 43.5683 -96.6886 78° East 476 548 41,000  Level Minneapolis Center
Wed 05:20:15 PM 43.5936 -96.5119 79° East 475 547 41,000  Level Minneapolis Center
Wed 05:21:18 PM 43.6247 -96.2994 78° East 475 547 41,000  Level Minneapolis Center
Wed 05:22:20 PM 43.6494 -96.1214 79° East 477 549 41,000  Level Minneapolis Center
Wed 05:23:22 PM 43.6750 -95.9433 79° East 478 550 41,000  Level Minneapolis Center
Wed 05:24:24 PM 43.6994 -95.7642 79° East 479 551 41,000  Level Minneapolis Center
Wed 05:25:25 PM 43.7189 -95.6219 79° East 477 549 41,000  Level Minneapolis Center
Wed 05:26:28 PM 43.7528 -95.3714 79° East 477 549 41,000  Level Minneapolis Center
Wed 05:27:30 PM 43.7772 -95.1933 79° East 476 548 41,000  Level Minneapolis Center
Wed 05:28:32 PM 43.8003 -95.0136 80° East 477 549 41,000  Level Minneapolis Center
Wed 05:29:34 PM 43.8233 -94.8328 80° East 480 552 41,000  Level Minneapolis Center
Wed 05:30:36 PM 43.8461 -94.6525 80° East 479 551 41,000  Level Minneapolis Center
Wed 05:31:38 PM 43.8697 -94.4725 80° East 478 550 41,000  Level Minneapolis Center
Wed 05:32:40 PM 43.8964 -94.2556 80° East 478 550 41,000  Level Minneapolis Center
Wed 05:33:42 PM 43.9197 -94.0625 80° East 483 556 41,000  Level Minneapolis Center
Wed 05:34:45 PM 43.9422 -93.8814 80° East 481 554 41,000  Level Minneapolis Center
Wed 05:35:46 PM 43.9592 -93.7372 81° East 477 549 41,000  Level Minneapolis Center
Wed 05:36:49 PM 43.9853 -93.5189 80° East 481 554 41,000  Level Minneapolis Center
Wed 05:37:52 PM 44.0067 -93.3381 81° East 480 552 41,000  Level Minneapolis Center
Wed 05:38:54 PM 44.0306 -93.1197 81° East 479 551 41,000  Level Minneapolis Center
Wed 05:40:08 PM 44.0522 -92.9369 81° East 482 555 41,000  Level Minneapolis Center
Wed 05:41:11 PM 44.0761 -92.7197 81° East 479 551 41,000  Level Minneapolis Center
Wed 05:42:13 PM 44.0950 -92.5381 82° East 479 551 41,000  Level Minneapolis Center
Wed 05:43:15 PM 44.1147 -92.3569 81° East 477 549 41,000  Level Minneapolis Center
Wed 05:44:16 PM 44.1342 -92.1744 81° East 479 551 41,000  Level Minneapolis Center
Wed 05:45:19 PM 44.1578 -91.9536 81° East 483 556 41,000  Level Minneapolis Center
Wed 05:46:33 PM 44.1769 -91.7689 82° East 484 557 41,000  Level Minneapolis Center
Wed 05:47:47 PM 44.1989 -91.5494 82° East 480 552 41,000  Level Minneapolis Center
Wed 05:48:50 PM 44.2206 -91.3267 82° East 484 557 41,000  Level Minneapolis Center
Wed 05:49:52 PM 44.2394 -91.1344 82° East 481 554 41,000 -1,258 Level Minneapolis Center
Wed 05:50:54 PM 44.2608 -90.9156 82° East 479 551 38,400 -2,419 Descending Minneapolis Center
Wed 05:51:56 PM 44.2772 -90.7333 83° East 476 548 36,000 -2,081 Descending Minneapolis Center
Wed 05:52:58 PM 44.2911 -90.5864 82° East 479 551 34,100 -2,160 Descending Minneapolis Center
Wed 05:54:01 PM 44.3106 -90.3436 84° East 478 550 31,500 -2,448 Descending Minneapolis Center
Wed 05:55:03 PM 44.3269 -90.1619 83° East 473 544 29,000 -2,419 Descending Minneapolis Center
Wed 05:56:05 PM 44.3431 -89.9792 83° East 472 543 26,500 -2,419 Descending Minneapolis Center
Wed 05:57:07 PM 44.3572 -89.7981 84° East 470 541 24,000 -2,244 Descending Minneapolis Center
Wed 05:58:08 PM 44.3706 -89.6481 83° East 467 537 21,900 -2,419 Descending Minneapolis Center
Wed 05:59:11 PM 44.3864 -89.4464 84° East 451 519 19,000 -2,584 Descending Minneapolis Center
Wed 06:00:25 PM 44.4028 -89.2544 83° East 429 494 16,000 -2,190 Descending Minneapolis Center
Wed 06:01:28 PM 44.4181 -89.0625 84° East 412 474 14,000 -1,824 Descending Minneapolis Center
Wed 06:02:30 PM 44.4267 -88.9147 85° East 398 458 12,200 -1,887 Descending Minneapolis Center
Wed 06:03:32 PM 44.4278 -88.7683 89° East 384 442 10,100 -2,118 Descending Minneapolis Center
Wed 06:04:46 PM 44.4242 -88.6244 92° East 334 384 7,400 -2,102 Descending Minneapolis Center
Wed 06:05:49 PM 44.4158 -88.4981 95° East 288 331 5,300 -1,597 Descending Minneapolis Center
Wed 06:06:50 PM 44.4125 -88.4131 93° East 277 319 4,100 -1,113 Descending Minneapolis Center
Wed 06:07:53 PM 44.4097 -88.2928 92° East 267 307 3,000 -864 Descending Minneapolis Center
Wed 06:08:55 PM 44.4194 -88.1794 83° East 261 300 2,300 -677 Descending Minneapolis Center
Wed 06:10:00 PM 44.4833 -88.1167 74° East  Level FlightAware Approximate
Wed 06:17:00 PM 44.4846 -88.1297 74° East  Level Estimated
Wed 06:18:00 PM 44.4846 -88.1297 74° East  Level Estimated
Wed 06:19:00 PM 44.4846 -88.1297 74° East  Level Estimated
Wed 06:20:00 PM 44.4846 -88.1297 74° East  Level Estimated

Login

Don't have an account? Register now (free) for customized features, flight alerts, and more!